LIRP/PSA METAR and TAF weather

Enter ICAO airport designator
Station Type Date Time Source
LIRP METAR 2021/10/20 06:45 UTC NOAA

LIRP 200645Z 14004KT 8000 FEW035 12/12 Q1027 NOSIG


Station Type Date Time Source
LIRP Decoded METAR 2021/10/20 06:45 UTC NOAA

Pisa / S. Giusto, Italy (LIRP) 43-41N 010-23E 6M
Oct 20, 2021 - 02:45 AM EDT / 2021.10.20 0645 UTC
Wind: from the SE (140 degrees) at 5 MPH (4 KT):0
Visibility: 4 mile(s):0
Sky conditions: mostly clear
Temperature: 53 F (12 C)
Dew Point: 53 F (12 C)
Relative Humidity: 100%
Pressure (altimeter): 30.33 in. Hg (1027 hPa)
ob: LIRP 200645Z 14004KT 8000 FEW035 12/12 Q1027 NOSIG
cycle: 7

Station Type Date Time Source
LIRP TAF 2021/10/20 06:24 UTC NOAA

TAF LIRP 200500Z 2006/2106 11005KT 9999 FEW030 PROB30
TEMPO 2100/2106 5000 BR BKN020

Example: see airport list